sensor_id;sensor_type;location;lat;lon;timestamp;pressure;altitude;pressure_sealevel;temperature;humidity
37972;BME280;23794;48.234;8.344;2023-10-08T00:00:49;95250.69;;;11.98;58.68
37972;BME280;23794;48.234;8.344;2023-10-08T00:03:16;95238.94;;;12.02;57.87
37972;BME280;23794;48.234;8.344;2023-10-08T00:05:49;95249.16;;;12.12;57.76
37972;BME280;23794;48.234;8.344;2023-10-08T00:08:17;95251.22;;;12.29;55.92
37972;BME280;23794;48.234;8.344;2023-10-08T00:10:44;95246.63;;;12.52;55.59
37972;BME280;23794;48.234;8.344;2023-10-08T00:13:13;95247.81;;;12.69;55.59
37972;BME280;23794;48.234;8.344;2023-10-08T00:15:43;95246.28;;;12.82;54.81
37972;BME280;23794;48.234;8.344;2023-10-08T00:18:21;95251.00;;;12.85;55.95
37972;BME280;23794;48.234;8.344;2023-10-08T00:20:52;95251.00;;;12.74;56.59
37972;BME280;23794;48.234;8.344;2023-10-08T00:23:24;95259.59;;;12.62;56.72
37972;BME280;23794;48.234;8.344;2023-10-08T00:25:55;95250.56;;;12.58;56.66
37972;BME280;23794;48.234;8.344;2023-10-08T00:28:22;95255.63;;;12.52;56.78
37972;BME280;23794;48.234;8.344;2023-10-08T00:30:49;95250.50;;;12.40;58.61
37972;BME280;23794;48.234;8.344;2023-10-08T00:33:16;95248.88;;;12.31;57.87
37972;BME280;23794;48.234;8.344;2023-10-08T00:35:44;95240.97;;;12.19;58.51
37972;BME280;23794;48.234;8.344;2023-10-08T00:38:11;95242.91;;;12.15;57.75
37972;BME280;23794;48.234;8.344;2023-10-08T00:40:42;95243.31;;;12.13;58.08
37972;BME280;23794;48.234;8.344;2023-10-08T00:43:31;95241.31;;;12.10;58.16
37972;BME280;23794;48.234;8.344;2023-10-08T00:46:02;95241.22;;;11.89;59.82
37972;BME280;23794;48.234;8.344;2023-10-08T00:48:31;95234.91;;;11.84;59.00
37972;BME280;23794;48.234;8.344;2023-10-08T00:51:03;95229.78;;;11.79;59.18
37972;BME280;23794;48.234;8.344;2023-10-08T00:54:00;95230.53;;;11.73;59.35
37972;BME280;23794;48.234;8.344;2023-10-08T00:56:36;95218.78;;;11.76;60.02
37972;BME280;23794;48.234;8.344;2023-10-08T00:59:12;95224.69;;;11.78;60.47
37972;BME280;23794;48.234;8.344;2023-10-08T01:01:44;95222.38;;;11.80;59.25
37972;BME280;23794;48.234;8.344;2023-10-08T01:04:26;95217.28;;;11.89;59.54
37972;BME280;23794;48.234;8.344;2023-10-08T01:06:54;95213.81;;;11.99;58.15
37972;BME280;23794;48.234;8.344;2023-10-08T01:09:26;95217.00;;;12.12;58.47
37972;BME280;23794;48.234;8.344;2023-10-08T01:12:15;95209.97;;;12.22;57.47
37972;BME280;23794;48.234;8.344;2023-10-08T01:14:50;95214.72;;;12.29;58.06
37972;BME280;23794;48.234;8.344;2023-10-08T01:17:24;95210.78;;;12.30;56.10
37972;BME280;23794;48.234;8.344;2023-10-08T01:19:52;95216.28;;;12.37;56.29
37972;BME280;23794;48.234;8.344;2023-10-08T01:22:26;95207.72;;;12.39;56.77
37972;BME280;23794;48.234;8.344;2023-10-08T01:24:56;95206.50;;;12.36;57.04
37972;BME280;23794;48.234;8.344;2023-10-08T01:27:24;95208.44;;;12.32;57.28
37972;BME280;23794;48.234;8.344;2023-10-08T01:29:51;95213.53;;;12.34;57.49
37972;BME280;23794;48.234;8.344;2023-10-08T01:32:22;95217.09;;;12.34;58.24
37972;BME280;23794;48.234;8.344;2023-10-08T01:34:49;95209.63;;;12.35;56.55
37972;BME280;23794;48.234;8.344;2023-10-08T01:37:17;95216.34;;;12.41;56.59
37972;BME280;23794;48.234;8.344;2023-10-08T01:39:45;95211.22;;;12.39;56.72
37972;BME280;23794;48.234;8.344;2023-10-08T01:42:12;95210.47;;;12.39;56.42
37972;BME280;23794;48.234;8.344;2023-10-08T01:44:48;95210.78;;;12.34;56.64
37972;BME280;23794;48.234;8.344;2023-10-08T01:47:17;95210.41;;;12.35;56.24
37972;BME280;23794;48.234;8.344;2023-10-08T01:49:44;95216.69;;;12.36;56.38
37972;BME280;23794;48.234;8.344;2023-10-08T01:52:13;95223.03;;;12.40;56.53
37972;BME280;23794;48.234;8.344;2023-10-08T01:54:49;95222.22;;;12.39;56.41
37972;BME280;23794;48.234;8.344;2023-10-08T01:57:16;95224.19;;;12.39;56.64
37972;BME280;23794;48.234;8.344;2023-10-08T01:59:44;95224.16;;;12.31;57.29
37972;BME280;23794;48.234;8.344;2023-10-08T02:02:11;95217.06;;;12.23;58.03
37972;BME280;23794;48.234;8.344;2023-10-08T02:04:41;95209.16;;;12.18;57.95
37972;BME280;23794;48.234;8.344;2023-10-08T02:07:08;95212.72;;;12.22;57.75
37972;BME280;23794;48.234;8.344;2023-10-08T02:09:36;95200.94;;;12.18;57.31
37972;BME280;23794;48.234;8.344;2023-10-08T02:12:08;95208.03;;;12.26;56.72
37972;BME280;23794;48.234;8.344;2023-10-08T02:14:35;95199.03;;;12.37;56.85
37972;BME280;23794;48.234;8.344;2023-10-08T02:17:02;95200.28;;;12.50;56.47
37972;BME280;23794;48.234;8.344;2023-10-08T02:19:33;95196.34;;;12.58;55.86
37972;BME280;23794;48.234;8.344;2023-10-08T02:22:01;95197.19;;;12.70;55.91
37972;BME280;23794;48.234;8.344;2023-10-08T02:24:30;95201.50;;;12.78;54.41
37972;BME280;23794;48.234;8.344;2023-10-08T02:26:57;95201.13;;;12.90;53.14
37972;BME280;23794;48.234;8.344;2023-10-08T02:29:26;95199.16;;;13.02;53.03
37972;BME280;23794;48.234;8.344;2023-10-08T02:31:53;95194.03;;;13.04;53.15
37972;BME280;23794;48.234;8.344;2023-10-08T02:34:21;95196.78;;;13.00;54.64
37972;BME280;23794;48.234;8.344;2023-10-08T02:36:49;95201.88;;;12.84;55.35
37972;BME280;23794;48.234;8.344;2023-10-08T02:39:18;95188.13;;;12.73;55.09
37972;BME280;23794;48.234;8.344;2023-10-08T02:41:49;95201.09;;;12.72;54.82
37972;BME280;23794;48.234;8.344;2023-10-08T02:44:17;95201.50;;;12.78;53.57
37972;BME280;23794;48.234;8.344;2023-10-08T02:46:45;95198.38;;;12.87;54.10
37972;BME280;23794;48.234;8.344;2023-10-08T02:49:16;95204.63;;;12.84;54.67
37972;BME280;23794;48.234;8.344;2023-10-08T02:51:48;95199.94;;;12.73;55.31
37972;BME280;23794;48.234;8.344;2023-10-08T02:54:18;95196.00;;;12.71;55.60
37972;BME280;23794;48.234;8.344;2023-10-08T02:56:47;95204.63;;;12.66;55.17
37972;BME280;23794;48.234;8.344;2023-10-08T02:59:18;95196.34;;;12.58;56.08
37972;BME280;23794;48.234;8.344;2023-10-08T03:01:49;95195.56;;;12.51;55.43
37972;BME280;23794;48.234;8.344;2023-10-08T03:04:16;95193.59;;;12.55;54.95
37972;BME280;23794;48.234;8.344;2023-10-08T03:06:46;95193.22;;;12.56;54.70
37972;BME280;23794;48.234;8.344;2023-10-08T03:09:17;95190.47;;;12.56;54.91
37972;BME280;23794;48.234;8.344;2023-10-08T03:11:50;95192.03;;;12.57;55.64
37972;BME280;23794;48.234;8.344;2023-10-08T03:14:18;95190.84;;;12.47;55.66
37972;BME280;23794;48.234;8.344;2023-10-08T03:16:50;95190.84;;;12.44;54.35
37972;BME280;23794;48.234;8.344;2023-10-08T03:19:19;95190.09;;;12.58;53.78
37972;BME280;23794;48.234;8.344;2023-10-08T03:21:47;95179.88;;;12.69;53.86
37972;BME280;23794;48.234;8.344;2023-10-08T03:24:18;95181.47;;;12.77;53.62
37972;BME280;23794;48.234;8.344;2023-10-08T03:27:05;95176.38;;;12.87;53.43
37972;BME280;23794;48.234;8.344;2023-10-08T03:29:47;95181.47;;;12.92;53.91
37972;BME280;23794;48.234;8.344;2023-10-08T03:32:15;95186.19;;;12.91;53.45
37972;BME280;23794;48.234;8.344;2023-10-08T03:34:48;95180.28;;;13.00;52.81
37972;BME280;23794;48.234;8.344;2023-10-08T03:37:20;95195.22;;;13.10;52.58
37972;BME280;23794;48.234;8.344;2023-10-08T03:39:48;95187.78;;;13.14;51.73
37972;BME280;23794;48.234;8.344;2023-10-08T03:42:20;95192.88;;;13.12;52.46
37972;BME280;23794;48.234;8.344;2023-10-08T03:44:52;95192.47;;;13.14;52.16
37972;BME280;23794;48.234;8.344;2023-10-08T03:47:22;95193.66;;;13.09;52.76
37972;BME280;23794;48.234;8.344;2023-10-08T03:49:49;95189.34;;;13.12;53.51
37972;BME280;23794;48.234;8.344;2023-10-08T03:52:18;95188.94;;;13.17;53.86
37972;BME280;23794;48.234;8.344;2023-10-08T03:54:53;95175.59;;;13.15;53.88
37972;BME280;23794;48.234;8.344;2023-10-08T03:57:47;95180.69;;;13.13;54.02
37972;BME280;23794;48.234;8.344;2023-10-08T04:00:15;95180.69;;;13.20;54.08
37972;BME280;23794;48.234;8.344;2023-10-08T04:02:45;95178.72;;;13.17;52.40
37972;BME280;23794;48.234;8.344;2023-10-08T04:05:22;95179.50;;;13.21;52.72
37972;BME280;23794;48.234;8.344;2023-10-08T04:07:59;95181.47;;;13.24;52.10
37972;BME280;23794;48.234;8.344;2023-10-08T04:10:31;95179.09;;;13.23;53.92
37972;BME280;23794;48.234;8.344;2023-10-08T04:13:09;95174.41;;;13.23;53.97
37972;BME280;23794;48.234;8.344;2023-10-08T04:15:37;95175.94;;;13.24;53.53
37972;BME280;23794;48.234;8.344;2023-10-08T04:18:11;95172.84;;;13.22;54.50
37972;BME280;23794;48.234;8.344;2023-10-08T04:20:40;95165.34;;;13.23;54.73
37972;BME280;23794;48.234;8.344;2023-10-08T04:23:26;95174.41;;;13.31;54.96
37972;BME280;23794;48.234;8.344;2023-10-08T04:25:52;95174.41;;;13.31;55.15
37972;BME280;23794;48.234;8.344;2023-10-08T04:28:23;95171.25;;;13.25;54.31
37972;BME280;23794;48.234;8.344;2023-10-08T04:30:55;95175.19;;;13.20;55.27
37972;BME280;23794;48.234;8.344;2023-10-08T04:33:28;95183.44;;;13.17;54.79
37972;BME280;23794;48.234;8.344;2023-10-08T04:36:01;95172.84;;;13.08;55.57
37972;BME280;23794;48.234;8.344;2023-10-08T04:38:29;95168.13;;;13.01;56.00
37972;BME280;23794;48.234;8.344;2023-10-08T04:40:56;95168.53;;;12.96;55.77
37972;BME280;23794;48.234;8.344;2023-10-08T04:43:29;95166.56;;;12.93;56.12
37972;BME280;23794;48.234;8.344;2023-10-08T04:45:58;95172.44;;;12.91;56.37
37972;BME280;23794;48.234;8.344;2023-10-08T04:48:26;95168.53;;;12.89;56.14
37972;BME280;23794;48.234;8.344;2023-10-08T04:50:59;95165.38;;;12.90;56.73
37972;BME280;23794;48.234;8.344;2023-10-08T04:53:30;95155.56;;;12.86;56.61
37972;BME280;23794;48.234;8.344;2023-10-08T04:56:08;95166.94;;;12.84;56.56
37972;BME280;23794;48.234;8.344;2023-10-08T04:58:46;95172.44;;;12.84;57.09
37972;BME280;23794;48.234;8.344;2023-10-08T05:01:17;95165.78;;;12.78;56.44
37972;BME280;23794;48.234;8.344;2023-10-08T05:03:47;95174.03;;;12.74;56.71
37972;BME280;23794;48.234;8.344;2023-10-08T05:06:27;95182.25;;;12.74;57.79
37972;BME280;23794;48.234;8.344;2023-10-08T05:11:48;95179.84;;;12.44;59.23
37972;BME280;23794;48.234;8.344;2023-10-08T05:14:20;95177.78;;;12.19;60.80
37972;BME280;23794;48.234;8.344;2023-10-08T05:17:05;95177.34;;;11.99;60.85
37972;BME280;23794;48.234;8.344;2023-10-08T05:19:45;95170.22;;;11.80;61.02
37972;BME280;23794;48.234;8.344;2023-10-08T05:22:17;95162.72;;;11.73;59.91
37972;BME280;23794;48.234;8.344;2023-10-08T05:25:04;95162.69;;;11.70;60.90
37972;BME280;23794;48.234;8.344;2023-10-08T05:27:36;95164.28;;;11.71;60.81
37972;BME280;23794;48.234;8.344;2023-10-08T05:30:12;95173.34;;;11.82;60.02
37972;BME280;23794;48.234;8.344;2023-10-08T05:32:44;95172.22;;;11.94;58.72
37972;BME280;23794;48.234;8.344;2023-10-08T05:35:30;95170.28;;;12.02;60.64
37972;BME280;23794;48.234;8.344;2023-10-08T05:38:05;95171.41;;;11.86;61.98
37972;BME280;23794;48.234;8.344;2023-10-08T05:40:52;95170.97;;;11.77;60.92
37972;BME280;23794;48.234;8.344;2023-10-08T05:43:30;95190.47;;;11.54;62.47
37972;BME280;23794;48.234;8.344;2023-10-08T05:48:56;95186.41;;;11.33;63.08
37972;BME280;23794;48.234;8.344;2023-10-08T05:51:40;95183.63;;;11.29;63.14
37972;BME280;23794;48.234;8.344;2023-10-08T05:54:17;95190.69;;;11.30;63.54
37972;BME280;23794;48.234;8.344;2023-10-08T05:57:07;95192.31;;;11.39;63.77
37972;BME280;23794;48.234;8.344;2023-10-08T05:59:38;95193.88;;;11.36;64.95
37972;BME280;23794;48.234;8.344;2023-10-08T06:02:06;95200.53;;;11.39;63.94
37972;BME280;23794;48.234;8.344;2023-10-08T06:04:57;95195.84;;;11.39;64.38
37972;BME280;23794;48.234;8.344;2023-10-08T06:07:48;95211.53;;;11.39;64.73
37972;BME280;23794;48.234;8.344;2023-10-08T06:10:29;95220.16;;;11.41;63.96
37972;BME280;23794;48.234;8.344;2023-10-08T06:12:58;95215.13;;;11.50;63.83
37972;BME280;23794;48.234;8.344;2023-10-08T06:15:40;95215.94;;;11.58;64.91
37972;BME280;23794;48.234;8.344;2023-10-08T06:18:29;95214.41;;;11.64;64.96
37972;BME280;23794;48.234;8.344;2023-10-08T06:21:02;95222.66;;;11.64;65.03
37972;BME280;23794;48.234;8.344;2023-10-08T06:23:36;95219.94;;;11.71;64.58
37972;BME280;23794;48.234;8.344;2023-10-08T06:26:04;95214.50;;;11.82;64.30
37972;BME280;23794;48.234;8.344;2023-10-08T06:28:38;95216.13;;;11.94;64.37
37972;BME280;23794;48.234;8.344;2023-10-08T06:31:05;95222.47;;;12.02;64.56
37972;BME280;23794;48.234;8.344;2023-10-08T06:33:43;95230.75;;;12.12;65.35
37972;BME280;23794;48.234;8.344;2023-10-08T06:36:11;95232.72;;;12.19;65.91
37972;BME280;23794;48.234;8.344;2023-10-08T06:38:39;95233.16;;;12.36;65.46
37972;BME280;23794;48.234;8.344;2023-10-08T06:41:10;95233.66;;;12.52;65.17
37972;BME280;23794;48.234;8.344;2023-10-08T06:43:45;95233.69;;;12.67;64.92
37972;BME280;23794;48.234;8.344;2023-10-08T06:46:29;95236.06;;;12.86;64.25
37972;BME280;23794;48.234;8.344;2023-10-08T06:49:00;95245.13;;;13.01;63.87
37972;BME280;23794;48.234;8.344;2023-10-08T06:51:31;95242.38;;;13.19;63.60
37972;BME280;23794;48.234;8.344;2023-10-08T06:54:00;95245.94;;;13.34;63.64
37972;BME280;23794;48.234;8.344;2023-10-08T06:56:30;95242.38;;;13.52;63.42
37972;BME280;23794;48.234;8.344;2023-10-08T06:58:58;95248.28;;;13.68;62.97
37972;BME280;23794;48.234;8.344;2023-10-08T07:01:29;95240.78;;;13.83;63.05
37972;BME280;23794;48.234;8.344;2023-10-08T07:04:06;95249.78;;;13.95;62.04
37972;BME280;23794;48.234;8.344;2023-10-08T07:06:42;95243.03;;;14.17;61.34
37972;BME280;23794;48.234;8.344;2023-10-08T07:09:17;95236.69;;;14.35;61.68
37972;BME280;23794;48.234;8.344;2023-10-08T07:11:57;95242.09;;;14.53;61.91
37972;BME280;23794;48.234;8.344;2023-10-08T07:14:25;95245.53;;;14.72;62.01
37972;BME280;23794;48.234;8.344;2023-10-08T07:16:55;95246.25;;;14.90;60.32
37972;BME280;23794;48.234;8.344;2023-10-08T07:19:29;95248.44;;;15.13;58.76
37972;BME280;23794;48.234;8.344;2023-10-08T07:22:00;95256.13;;;15.40;58.04
37972;BME280;23794;48.234;8.344;2023-10-08T07:24:31;95253.19;;;15.62;56.60
37972;BME280;23794;48.234;8.344;2023-10-08T07:27:04;95249.88;;;15.78;56.77
37972;BME280;23794;48.234;8.344;2023-10-08T07:29:36;95260.44;;;15.90;55.48
37972;BME280;23794;48.234;8.344;2023-10-08T07:32:03;95253.19;;;16.04;55.70
37972;BME280;23794;48.234;8.344;2023-10-08T07:34:41;95254.31;;;16.10;56.04
37972;BME280;23794;48.234;8.344;2023-10-08T07:37:11;95257.03;;;16.14;55.45
37972;BME280;23794;48.234;8.344;2023-10-08T07:39:38;95253.00;;;16.22;55.95
37972;BME280;23794;48.234;8.344;2023-10-08T07:42:16;95254.16;;;16.24;55.30
37972;BME280;23794;48.234;8.344;2023-10-08T07:44:43;95245.41;;;16.30;55.30
37972;BME280;23794;48.234;8.344;2023-10-08T07:47:10;95238.25;;;16.36;55.47
37972;BME280;23794;48.234;8.344;2023-10-08T07:49:39;95238.19;;;16.39;56.45
37972;BME280;23794;48.234;8.344;2023-10-08T07:52:06;95237.72;;;16.45;55.64
37972;BME280;23794;48.234;8.344;2023-10-08T07:54:33;95240.44;;;16.48;55.59
37972;BME280;23794;48.234;8.344;2023-10-08T07:57:03;95230.09;;;16.56;55.91
37972;BME280;23794;48.234;8.344;2023-10-08T07:59:39;95243.03;;;16.63;56.02
37972;BME280;23794;48.234;8.344;2023-10-08T08:02:18;95239.72;;;16.71;56.39
37972;BME280;23794;48.234;8.344;2023-10-08T08:04:51;95235.63;;;16.83;55.94
37972;BME280;23794;48.234;8.344;2023-10-08T08:07:20;95232.41;;;16.88;55.68
37972;BME280;23794;48.234;8.344;2023-10-08T08:09:49;95234.25;;;16.99;52.88
37972;BME280;23794;48.234;8.344;2023-10-08T08:12:26;95245.94;;;17.10;54.13
37972;BME280;23794;48.234;8.344;2023-10-08T08:14:55;95245.34;;;17.23;54.43
37972;BME280;23794;48.234;8.344;2023-10-08T08:17:22;95238.94;;;17.29;53.00
37972;BME280;23794;48.234;8.344;2023-10-08T08:19:52;95236.75;;;17.41;52.02
37972;BME280;23794;48.234;8.344;2023-10-08T08:22:21;95235.31;;;17.56;51.79
37972;BME280;23794;48.234;8.344;2023-10-08T08:24:54;95231.47;;;17.74;50.57
37972;BME280;23794;48.234;8.344;2023-10-08T08:27:26;95230.38;;;17.91;51.45
37972;BME280;23794;48.234;8.344;2023-10-08T08:29:59;95231.25;;;18.08;48.13
37972;BME280;23794;48.234;8.344;2023-10-08T08:32:37;95226.00;;;18.34;47.29
37972;BME280;23794;48.234;8.344;2023-10-08T08:35:11;95221.22;;;18.55;46.99
37972;BME280;23794;48.234;8.344;2023-10-08T08:37:38;95228.22;;;18.79;46.31
37972;BME280;23794;48.234;8.344;2023-10-08T08:40:09;95228.56;;;19.02;47.00
37972;BME280;23794;48.234;8.344;2023-10-08T08:42:49;95225.44;;;19.16;46.04
37972;BME280;23794;48.234;8.344;2023-10-08T08:45:19;95225.34;;;19.20;47.40
37972;BME280;23794;48.234;8.344;2023-10-08T08:47:47;95227.00;;;19.17;46.25
37972;BME280;23794;48.234;8.344;2023-10-08T08:50:14;95225.97;;;19.11;47.19
37972;BME280;23794;48.234;8.344;2023-10-08T08:52:41;95224.56;;;19.03;47.54
37972;BME280;23794;48.234;8.344;2023-10-08T08:55:09;95239.81;;;18.94;46.72
37972;BME280;23794;48.234;8.344;2023-10-08T08:57:42;95232.44;;;18.88;47.59
37972;BME280;23794;48.234;8.344;2023-10-08T09:00:14;95243.72;;;18.97;46.82
37972;BME280;23794;48.234;8.344;2023-10-08T09:02:44;95237.75;;;19.15;45.88
37972;BME280;23794;48.234;8.344;2023-10-08T09:05:11;95246.78;;;19.36;45.27
37972;BME280;23794;48.234;8.344;2023-10-08T09:08:04;95248.81;;;19.52;45.23
37972;BME280;23794;48.234;8.344;2023-10-08T09:10:35;95246.13;;;19.65;45.69
37972;BME280;23794;48.234;8.344;2023-10-08T09:13:21;95244.75;;;19.73;45.00
37972;BME280;23794;48.234;8.344;2023-10-08T09:16:11;95246.38;;;19.87;43.69
37972;BME280;23794;48.234;8.344;2023-10-08T09:18:38;95249.63;;;20.15;42.46
37972;BME280;23794;48.234;8.344;2023-10-08T09:21:17;95247.72;;;20.41;40.72
37972;BME280;23794;48.234;8.344;2023-10-08T09:23:50;95243.00;;;20.67;39.90
37972;BME280;23794;48.234;8.344;2023-10-08T09:26:18;95245.06;;;20.93;38.16
37972;BME280;23794;48.234;8.344;2023-10-08T09:28:46;95238.38;;;21.16;39.20
37972;BME280;23794;48.234;8.344;2023-10-08T09:31:14;95235.94;;;21.31;37.67
37972;BME280;23794;48.234;8.344;2023-10-08T09:33:41;95236.56;;;21.22;35.43
37972;BME280;23794;48.234;8.344;2023-10-08T09:36:09;95234.91;;;21.38;36.91
37972;BME280;23794;48.234;8.344;2023-10-08T09:38:44;95241.72;;;21.50;36.10
37972;BME280;23794;48.234;8.344;2023-10-08T09:41:10;95248.63;;;21.58;36.79
37972;BME280;23794;48.234;8.344;2023-10-08T09:43:40;95254.88;;;21.62;35.76
37972;BME280;23794;48.234;8.344;2023-10-08T09:46:31;95260.75;;;21.64;36.16
37972;BME280;23794;48.234;8.344;2023-10-08T09:49:04;95265.22;;;21.61;36.87
37972;BME280;23794;48.234;8.344;2023-10-08T09:51:37;95272.03;;;21.47;36.08
37972;BME280;23794;48.234;8.344;2023-10-08T09:54:23;95270.38;;;21.50;36.37
37972;BME280;23794;48.234;8.344;2023-10-08T09:56:52;95276.13;;;21.69;35.30
37972;BME280;23794;48.234;8.344;2023-10-08T09:59:20;95277.47;;;21.64;34.27
37972;BME280;23794;48.234;8.344;2023-10-08T10:01:47;95284.84;;;21.58;34.20
37972;BME280;23794;48.234;8.344;2023-10-08T10:04:24;95290.75;;;21.60;34.50
37972;BME280;23794;48.234;8.344;2023-10-08T10:06:51;95280.16;;;21.55;36.29
37972;BME280;23794;48.234;8.344;2023-10-08T10:09:23;95288.97;;;21.66;35.61
37972;BME280;23794;48.234;8.344;2023-10-08T10:11:52;95284.25;;;21.89;34.91
37972;BME280;23794;48.234;8.344;2023-10-08T10:14:24;95292.81;;;22.07;33.76
37972;BME280;23794;48.234;8.344;2023-10-08T10:17:13;95284.91;;;21.93;33.60
37972;BME280;23794;48.234;8.344;2023-10-08T10:20:00;95290.53;;;21.67;33.46
37972;BME280;23794;48.234;8.344;2023-10-08T10:22:32;95292.28;;;21.74;34.84
37972;BME280;23794;48.234;8.344;2023-10-08T10:25:02;95290.09;;;22.04;34.32
37972;BME280;23794;48.234;8.344;2023-10-08T10:30:17;95290.94;;;22.62;34.61
37972;BME280;23794;48.234;8.344;2023-10-08T10:32:52;95273.84;;;22.82;32.43
37972;BME280;23794;48.234;8.344;2023-10-08T10:35:21;95287.22;;;22.42;32.20
37972;BME280;23794;48.234;8.344;2023-10-08T10:37:50;95279.50;;;22.24;33.40
37972;BME280;23794;48.234;8.344;2023-10-08T10:40:22;95295.31;;;22.27;33.94
37972;BME280;23794;48.234;8.344;2023-10-08T10:42:56;95289.56;;;22.44;33.48
37972;BME280;23794;48.234;8.344;2023-10-08T10:45:24;95294.38;;;22.66;32.94
37972;BME280;23794;48.234;8.344;2023-10-08T10:48:06;95282.53;;;22.84;32.80
37972;BME280;23794;48.234;8.344;2023-10-08T10:50:40;95286.44;;;22.86;32.29
37972;BME280;23794;48.234;8.344;2023-10-08T10:53:28;95280.59;;;22.71;31.70
37972;BME280;23794;48.234;8.344;2023-10-08T10:55:58;95279.78;;;22.62;31.85
37972;BME280;23794;48.234;8.344;2023-10-08T10:58:31;95283.59;;;22.55;31.94
37972;BME280;23794;48.234;8.344;2023-10-08T11:01:05;95281.31;;;22.40;31.56
37972;BME280;23794;48.234;8.344;2023-10-08T11:03:51;95281.06;;;22.48;32.08
37972;BME280;23794;48.234;8.344;2023-10-08T11:06:24;95277.44;;;22.60;31.83
37972;BME280;23794;48.234;8.344;2023-10-08T11:08:52;95283.59;;;22.77;32.24
37972;BME280;23794;48.234;8.344;2023-10-08T11:11:26;95279.75;;;22.84;30.71
37972;BME280;23794;48.234;8.344;2023-10-08T11:14:00;95276.66;;;22.82;31.44
37972;BME280;23794;48.234;8.344;2023-10-08T11:16:28;95266.25;;;23.04;31.61
37972;BME280;23794;48.234;8.344;2023-10-08T11:18:58;95268.78;;;23.21;30.42
37972;BME280;23794;48.234;8.344;2023-10-08T11:21:28;95269.03;;;23.04;30.18
37972;BME280;23794;48.234;8.344;2023-10-08T11:24:00;95267.81;;;22.83;30.72
37972;BME280;23794;48.234;8.344;2023-10-08T11:26:36;95265.00;;;22.83;30.78
37972;BME280;23794;48.234;8.344;2023-10-08T11:29:06;95270.59;;;23.05;31.15
37972;BME280;23794;48.234;8.344;2023-10-08T11:31:41;95265.31;;;23.08;30.70
37972;BME280;23794;48.234;8.344;2023-10-08T11:34:10;95261.66;;;23.20;31.77
37972;BME280;23794;48.234;8.344;2023-10-08T11:36:41;95258.72;;;23.24;30.52
37972;BME280;23794;48.234;8.344;2023-10-08T11:39:20;95254.03;;;22.89;30.89
37972;BME280;23794;48.234;8.344;2023-10-08T11:44:23;95255.91;;;23.14;31.65
37972;BME280;23794;48.234;8.344;2023-10-08T11:46:57;95251.63;;;23.32;30.74
37972;BME280;23794;48.234;8.344;2023-10-08T11:49:31;95253.28;;;23.20;31.28
37972;BME280;23794;48.234;8.344;2023-10-08T11:52:03;95252.03;;;23.21;30.71
37972;BME280;23794;48.234;8.344;2023-10-08T11:54:30;95242.38;;;23.53;30.65
37972;BME280;23794;48.234;8.344;2023-10-08T11:57:00;95231.13;;;23.85;30.34
37972;BME280;23794;48.234;8.344;2023-10-08T11:59:29;95236.88;;;24.19;30.92
37972;BME280;23794;48.234;8.344;2023-10-08T12:01:56;95235.97;;;24.22;31.15
37972;BME280;23794;48.234;8.344;2023-10-08T12:04:23;95228.50;;;23.91;29.53
37972;BME280;23794;48.234;8.344;2023-10-08T12:06:50;95234.38;;;23.93;29.93
37972;BME280;23794;48.234;8.344;2023-10-08T12:09:18;95239.53;;;24.31;29.70
37972;BME280;23794;48.234;8.344;2023-10-08T12:11:48;95224.91;;;24.27;29.65
37972;BME280;23794;48.234;8.344;2023-10-08T12:14:15;95225.84;;;23.96;30.88
37972;BME280;23794;48.234;8.344;2023-10-08T12:16:42;95223.81;;;23.69;30.40
37972;BME280;23794;48.234;8.344;2023-10-08T12:19:12;95224.41;;;23.73;30.26
37972;BME280;23794;48.234;8.344;2023-10-08T12:21:43;95224.28;;;24.05;30.19
37972;BME280;23794;48.234;8.344;2023-10-08T12:24:13;95219.81;;;24.44;30.51
37972;BME280;23794;48.234;8.344;2023-10-08T12:26:41;95215.56;;;24.58;28.42
37972;BME280;23794;48.234;8.344;2023-10-08T12:29:13;95215.84;;;24.79;30.71
37972;BME280;23794;48.234;8.344;2023-10-08T12:31:46;95209.44;;;24.88;28.84
37972;BME280;23794;48.234;8.344;2023-10-08T12:34:14;95207.06;;;24.95;29.27
37972;BME280;23794;48.234;8.344;2023-10-08T12:36:41;95216.69;;;25.13;28.75
37972;BME280;23794;48.234;8.344;2023-10-08T12:39:09;95208.69;;;25.30;28.92
37972;BME280;23794;48.234;8.344;2023-10-08T12:41:43;95210.72;;;25.30;30.19
37972;BME280;23794;48.234;8.344;2023-10-08T12:44:11;95205.97;;;25.45;28.04
37972;BME280;23794;48.234;8.344;2023-10-08T12:46:40;95211.88;;;25.47;29.18
37972;BME280;23794;48.234;8.344;2023-10-08T12:49:10;95204.94;;;25.57;29.30
37972;BME280;23794;48.234;8.344;2023-10-08T12:51:37;95200.59;;;25.56;27.21
37972;BME280;23794;48.234;8.344;2023-10-08T12:54:08;95196.06;;;25.59;27.60
37972;BME280;23794;48.234;8.344;2023-10-08T12:56:38;95194.41;;;25.52;27.80
37972;BME280;23794;48.234;8.344;2023-10-08T12:59:12;95205.91;;;25.54;28.05
37972;BME280;23794;48.234;8.344;2023-10-08T13:01:50;95197.69;;;25.51;27.65
37972;BME280;23794;48.234;8.344;2023-10-08T13:04:24;95194.81;;;25.60;28.00
37972;BME280;23794;48.234;8.344;2023-10-08T13:07:02;95201.28;;;25.42;27.11
37972;BME280;23794;48.234;8.344;2023-10-08T13:09:30;95211.75;;;25.41;27.10
37972;BME280;23794;48.234;8.344;2023-10-08T13:12:04;95199.63;;;25.35;26.97
37972;BME280;23794;48.234;8.344;2023-10-08T13:14:31;95197.09;;;25.37;27.55
37972;BME280;23794;48.234;8.344;2023-10-08T13:17:02;95190.47;;;25.25;27.62
37972;BME280;23794;48.234;8.344;2023-10-08T13:19:29;95191.78;;;25.15;27.84
37972;BME280;23794;48.234;8.344;2023-10-08T13:22:01;95191.97;;;25.12;28.04
37972;BME280;23794;48.234;8.344;2023-10-08T13:24:33;95185.88;;;25.04;28.95
37972;BME280;23794;48.234;8.344;2023-10-08T13:27:02;95193.81;;;25.05;28.92
37972;BME280;23794;48.234;8.344;2023-10-08T13:29:32;95185.75;;;24.98;28.26
37972;BME280;23794;48.234;8.344;2023-10-08T13:32:00;95189.50;;;24.95;28.55
37972;BME280;23794;48.234;8.344;2023-10-08T13:34:28;95194.13;;;25.07;28.83
37972;BME280;23794;48.234;8.344;2023-10-08T13:36:55;95193.97;;;25.11;29.04